الصفحة الرئيسية
METAR-TAF:

METAR-TAF

مطار :

ساراتوغا, وايومنغ, الولايات المتحدة

دائرة عرض: 41-26-41N, خط طول: 106-49-25W, ارتفاع: 2137 متر

مراقبة الطقس الحالي

تاريخ ووقت الإصدار 16 دقيقة قبل الساعة 02:15UTC
ريح 8 عقدة من الجنوب
درجة الحرارة 21°درجة مئوية
الرطوبة 17%
ضغط 1019 hPa
الرؤية: 16.1 كم
سماء صافية

METAR: KSAA 260215Z AUTO 19008KT 10SM CLR 21/M05 A3009 RMK AO2

زمن: 20:31 (02:31 UTC)


TAF: مفقودة

أرصاد الطقس والتوقعات من أكثر من 4000 مطار (تقارير الطقس للمطار METAR والتنبؤ بالطقس بالمطارTAF).

المحطات المتاحة هي النقط الصفراء والحمراء على الخريطة.

حرك المؤشر فوق النقطة لمعرفة اسم المحطة.

ثم انقر لمعرفة أرصاد وتوقعات الطقس.

لتغيير الخارطة: اضغط على الأزرار الخضراء مع رمز الصليب الأسود للتكبير. على الزر الأخضر مع شرطة للتصغير، أو على الأسهم الخضراء للخرائط المجاورة.


METAR-TAF: